createdAt,value
2018-06-20T00:00:02.002Z,54.4
2018-06-20T00:00:52.381Z,54.4
2018-06-20T00:01:42.445Z,54.3
2018-06-20T00:02:32.502Z,54.4
2018-06-20T00:03:22.543Z,54.3
2018-06-20T00:04:11.775Z,54.3
2018-06-20T00:05:02.164Z,54.3
2018-06-20T00:05:52.464Z,54.3
2018-06-20T00:06:42.848Z,54.3
2018-06-20T00:07:32.630Z,54.3
2018-06-20T00:08:22.393Z,54.3
2018-06-20T00:09:12.738Z,54.3
2018-06-20T00:10:53.152Z,54.3
2018-06-20T00:11:43.195Z,54.3
2018-06-20T00:12:33.000Z,54.3
2018-06-20T00:13:23.339Z,54.2
2018-06-20T00:14:12.839Z,54.2
2018-06-20T00:15:02.965Z,54.2
2018-06-20T00:15:53.504Z,54.2
2018-06-20T00:16:43.312Z,54.2
2018-06-20T00:17:33.410Z,54.2
2018-06-20T00:18:23.440Z,54.1
2018-06-20T00:19:13.205Z,54.1
2018-06-20T00:20:03.288Z,54.1
2018-06-20T00:20:53.892Z,54.1
2018-06-20T00:21:43.185Z,54.1
2018-06-20T00:22:33.727Z,54.1
2018-06-20T00:23:23.819Z,54.1
2018-06-20T00:24:13.875Z,54.1
2018-06-20T00:25:04.025Z,54.1
2018-06-20T00:25:54.010Z,54.1
2018-06-20T00:26:44.330Z,54.1
2018-06-20T00:27:33.845Z,54
2018-06-20T00:28:23.357Z,54
2018-06-20T00:29:14.571Z,54
2018-06-20T00:30:04.602Z,54
2018-06-20T00:30:54.397Z,54
2018-06-20T00:31:44.166Z,54
2018-06-20T00:32:33.476Z,54
2018-06-20T00:33:24.851Z,53.9
2018-06-20T00:34:14.652Z,53.9
2018-06-20T00:35:04.724Z,53.9
2018-06-20T00:35:54.790Z,53.9
2018-06-20T00:36:45.113Z,53.9
2018-06-20T00:37:35.204Z,53.9
2018-06-20T00:38:24.948Z,53.9
2018-06-20T00:39:15.332Z,53.9
2018-06-20T00:40:05.154Z,53.9
2018-06-20T00:40:55.111Z,53.9
2018-06-20T00:41:45.469Z,53.9
2018-06-20T00:42:35.269Z,53.9
2018-06-20T00:43:25.611Z,53.9
2018-06-20T00:44:15.433Z,53.8
2018-06-20T00:45:05.494Z,53.8
2018-06-20T00:45:55.538Z,53.8
2018-06-20T00:46:45.578Z,53.8
2018-06-20T00:47:35.937Z,53.8
2018-06-20T00:48:25.467Z,53.8
2018-06-20T00:49:15.783Z,53.8
2018-06-20T00:50:05.943Z,53.8
2018-06-20T00:50:55.913Z,53.8
2018-06-20T00:51:46.040Z,53.8
2018-06-20T00:52:36.363Z,53.8
2018-06-20T00:53:26.090Z,53.8
2018-06-20T00:54:15.595Z,53.7
2018-06-20T00:55:05.951Z,53.7
2018-06-20T00:55:56.568Z,53.7
2018-06-20T00:56:46.069Z,53.7
2018-06-20T00:57:36.140Z,53.7
2018-06-20T00:58:26.477Z,53.7
2018-06-20T00:59:16.530Z,53.7
2018-06-20T01:00:06.607Z,53.6
2018-06-20T01:00:56.668Z,53.6
2018-06-20T01:01:46.510Z,53.6
2018-06-20T01:02:36.797Z,53.6
2018-06-20T01:03:27.154Z,53.6
2018-06-20T01:04:17.222Z,53.6
2018-06-20T01:05:06.979Z,53.6
2018-06-20T01:05:57.322Z,53.6
2018-06-20T01:06:47.403Z,53.6
2018-06-20T01:07:37.545Z,53.6
2018-06-20T01:08:27.220Z,53.6
2018-06-20T01:09:17.587Z,53.6
2018-06-20T01:10:07.079Z,53.6
2018-06-20T01:10:57.443Z,53.5
2018-06-20T01:11:49.163Z,53.5
2018-06-20T01:12:37.553Z,53.5
2018-06-20T01:13:27.353Z,53.5
2018-06-20T01:14:17.965Z,53.5
2018-06-20T01:15:07.477Z,53.5
2018-06-20T01:15:58.076Z,53.4
2018-06-20T01:16:47.621Z,53.4
2018-06-20T01:17:38.191Z,53.4
2018-06-20T01:18:42.928Z,53.4
2018-06-20T01:19:18.062Z,53.4
2018-06-20T01:20:07.869Z,53.4
2018-06-20T01:20:58.440Z,53.4
2018-06-20T01:21:48.530Z,53.4
2018-06-20T01:22:38.624Z,53.4
2018-06-20T01:23:28.688Z,53.4
2018-06-20T01:24:18.715Z,53.4
2018-06-20T01:25:08.796Z,53.4
2018-06-20T01:25:58.852Z,53.4
2018-06-20T01:26:48.928Z,53.3
2018-06-20T01:27:38.145Z,53.4
2018-06-20T01:28:28.482Z,53.3
2018-06-20T01:29:18.262Z,53.3
2018-06-20T01:30:09.180Z,53.3
2018-06-20T01:30:58.688Z,53.3
2018-06-20T01:31:49.315Z,53.3
2018-06-20T01:32:39.378Z,53.3
2018-06-20T01:33:29.170Z,53.3
2018-06-20T01:34:19.534Z,53.3
2018-06-20T01:35:09.312Z,53.3
2018-06-20T01:35:59.611Z,53.3
2018-06-20T01:36:49.725Z,53.2
2018-06-20T01:37:39.201Z,53.2
2018-06-20T01:38:29.345Z,53.2
2018-06-20T01:39:19.854Z,53.2
2018-06-20T01:40:09.653Z,53.2
2018-06-20T01:40:59.738Z,53.2
2018-06-20T01:41:50.077Z,53.2
2018-06-20T01:42:40.193Z,53.2
2018-06-20T01:43:29.936Z,53.1
2018-06-20T01:44:19.974Z,53.1
2018-06-20T01:45:10.305Z,53.1
2018-06-20T01:46:00.407Z,53.1
2018-06-20T01:46:50.189Z,53.1
2018-06-20T01:47:39.933Z,53.1
2018-06-20T01:48:30.356Z,53.1
2018-06-20T01:49:20.672Z,53.1
2018-06-20T01:50:10.437Z,53.1
2018-06-20T01:51:00.217Z,53.1
2018-06-20T01:51:50.548Z,53.1
2018-06-20T01:52:40.372Z,53
2018-06-20T01:53:30.690Z,53
2018-06-20T01:54:20.725Z,53
2018-06-20T01:55:10.247Z,53
2018-06-20T01:56:01.250Z,53
2018-06-20T01:56:50.952Z,53
2018-06-20T01:57:40.711Z,53
2018-06-20T01:58:31.325Z,52.9
2018-06-20T01:59:19.704Z,52.9
2018-06-20T02:00:10.922Z,52.9
2018-06-20T02:01:01.528Z,52.9
2018-06-20T02:01:51.571Z,52.9
2018-06-20T02:02:41.117Z,52.9
2018-06-20T02:03:31.733Z,52.9
2018-06-20T02:04:21.246Z,52.9
2018-06-20T02:05:10.988Z,52.9
2018-06-20T02:06:01.383Z,52.9
2018-06-20T02:06:51.716Z,52.9
2018-06-20T02:07:42.049Z,52.9
2018-06-20T02:08:32.119Z,52.9
2018-06-20T02:09:21.927Z,52.8
2018-06-20T02:10:12.034Z,52.8
2018-06-20T02:11:02.287Z,52.9
2018-06-20T02:11:52.115Z,52.8
2018-06-20T02:12:42.159Z,52.8
2018-06-20T02:13:32.184Z,52.8
2018-06-20T02:14:21.962Z,52.8
2018-06-20T02:15:12.344Z,52.8
2018-06-20T02:16:02.676Z,52.8
2018-06-20T02:16:52.454Z,52.8
2018-06-20T02:17:42.521Z,52.8
2018-06-20T02:18:32.880Z,52.8
2018-06-20T02:19:22.973Z,52.8
2018-06-20T02:20:13.026Z,52.8
2018-06-20T02:21:03.056Z,52.7
2018-06-20T02:21:52.898Z,52.7
2018-06-20T02:22:42.925Z,52.7
2018-06-20T02:23:33.252Z,52.7
2018-06-20T02:24:22.764Z,52.7
2018-06-20T02:25:13.357Z,52.7
2018-06-20T02:26:02.875Z,52.7
2018-06-20T02:26:53.498Z,52.6
2018-06-20T02:27:43.572Z,52.7
2018-06-20T02:28:33.608Z,52.6
2018-06-20T02:29:23.670Z,52.6
2018-06-20T02:30:13.211Z,52.6
2018-06-20T02:31:03.588Z,52.6
2018-06-20T02:31:53.612Z,52.6
2018-06-20T02:32:43.665Z,52.6
2018-06-20T02:33:33.741Z,52.6
2018-06-20T02:34:23.512Z,52.6
2018-06-20T02:35:13.608Z,52.6
2018-06-20T02:36:03.918Z,52.6
2018-06-20T02:36:53.719Z,52.6
2018-06-20T02:37:43.772Z,52.6
2018-06-20T02:38:34.383Z,52.5
2018-06-20T02:39:24.254Z,52.5
2018-06-20T02:40:14.255Z,52.5
2018-06-20T02:41:04.314Z,52.5
2018-06-20T02:41:54.418Z,52.5
2018-06-20T02:42:44.463Z,52.5
2018-06-20T02:43:33.941Z,52.5
2018-06-20T02:44:23.995Z,52.4
2018-06-20T02:45:14.945Z,52.4
2018-06-20T02:46:04.990Z,52.4
2018-06-20T02:46:55.085Z,52.4
2018-06-20T02:47:45.170Z,52.4
2018-06-20T02:48:34.886Z,52.4
2018-06-20T02:50:15.012Z,52.4
2018-06-20T02:56:05.452Z,52.3
2018-06-20T02:56:55.212Z,52.3
2018-06-20T02:57:45.023Z,52.3
2018-06-20T02:58:35.340Z,52.3
2018-06-20T02:59:25.415Z,52.3
2018-06-20T03:00:15.778Z,52.3
2018-06-20T03:01:06.176Z,52.3
2018-06-20T03:01:56.161Z,52.3
2018-06-20T03:02:45.946Z,52.3
2018-06-20T03:03:36.302Z,52.3
2018-06-20T03:04:25.803Z,52.3
2018-06-20T03:05:15.884Z,52.3
2018-06-20T03:06:06.247Z,52.3
2018-06-20T03:06:56.557Z,52.2
2018-06-20T03:07:46.618Z,52.2
2018-06-20T03:08:36.129Z,52.2
2018-06-20T03:09:26.237Z,52.2
2018-06-20T03:10:16.820Z,52.2
2018-06-20T03:11:06.873Z,52.2
2018-06-20T03:11:56.088Z,52.2
2018-06-20T03:12:46.757Z,52.1
2018-06-20T03:13:37.040Z,52.1
2018-06-20T03:14:26.835Z,52.1
2018-06-20T03:15:16.915Z,52.1
2018-06-20T03:16:06.432Z,52.1
2018-06-20T03:16:56.759Z,52.1
2018-06-20T03:17:47.110Z,52.1
2018-06-20T03:18:36.876Z,52.1
2018-06-20T03:19:27.241Z,52.1
2018-06-20T03:20:17.537Z,52.1
2018-06-20T03:21:07.669Z,52.1
2018-06-20T03:21:57.427Z,52.1
2018-06-20T03:22:47.742Z,52.1
2018-06-20T03:23:37.551Z,52.1
2018-06-20T03:24:27.917Z,52
2018-06-20T03:25:17.787Z,52
2018-06-20T03:26:08.008Z,52
2018-06-20T03:26:57.766Z,52
2018-06-20T03:27:47.020Z,52
2018-06-20T03:28:37.918Z,52
2018-06-20T03:29:28.025Z,52
2018-06-20T03:36:58.291Z,51.9
2018-06-20T03:37:48.629Z,51.9
2018-06-20T03:38:38.974Z,51.9
2018-06-20T03:39:28.197Z,51.9
2018-06-20T03:40:18.526Z,51.9
2018-06-20T03:41:08.884Z,51.9
2018-06-20T03:41:58.923Z,51.9
2018-06-20T03:42:49.049Z,51.8
2018-06-20T03:43:39.351Z,51.8
2018-06-20T03:44:28.295Z,51.8
2018-06-20T03:45:18.901Z,51.8
2018-06-20T03:46:08.694Z,51.8
2018-06-20T03:46:59.038Z,51.8
2018-06-20T03:47:48.816Z,51.8
2018-06-20T03:48:39.181Z,51.8
2018-06-20T03:50:19.548Z,51.8
2018-06-20T03:51:09.366Z,51.8
2018-06-20T03:51:59.992Z,51.8
2018-06-20T03:52:50.050Z,51.7
2018-06-20T03:53:39.551Z,51.7
2018-06-20T03:54:29.906Z,51.8
2018-06-20T03:55:20.201Z,51.7
2018-06-20T03:56:10.332Z,51.7
2018-06-20T03:57:00.098Z,51.7
2018-06-20T03:57:50.451Z,51.7
2018-06-20T03:58:39.918Z,51.7
2018-06-20T03:59:30.257Z,51.7
2018-06-20T04:00:20.051Z,51.6
2018-06-20T04:01:10.409Z,51.6
2018-06-20T04:02:00.183Z,51.6
2018-06-20T04:02:50.519Z,51.6
2018-06-20T04:03:40.585Z,51.6
2018-06-20T04:04:30.975Z,51.6
2018-06-20T04:05:20.710Z,51.6
2018-06-20T04:06:11.148Z,51.5
2018-06-20T04:07:00.828Z,51.5
2018-06-20T04:07:50.905Z,51.4
2018-06-20T04:08:40.450Z,51.4
2018-06-20T04:09:31.338Z,51.4
2018-06-20T04:10:20.841Z,51.4
2018-06-20T04:11:11.219Z,51.4
2018-06-20T04:12:01.473Z,51.4
2018-06-20T04:12:52.217Z,51.4
2018-06-20T04:13:41.330Z,51.4
2018-06-20T04:14:30.582Z,51.4
2018-06-20T04:15:21.476Z,51.4
2018-06-20T04:16:10.988Z,51.4
2018-06-20T04:17:01.617Z,51.4
2018-06-20T04:17:51.081Z,51.4
2018-06-20T04:18:41.759Z,51.3
2018-06-20T04:19:31.756Z,51.3
2018-06-20T04:20:21.856Z,51.3
2018-06-20T04:21:12.206Z,51.3
2018-06-20T04:22:02.263Z,51.3
2018-06-20T04:22:52.366Z,51.3
2018-06-20T04:23:42.378Z,51.3
2018-06-20T04:24:32.169Z,51.3
2018-06-20T04:25:21.946Z,51.3
2018-06-20T04:26:12.375Z,51.3
2018-06-20T04:27:02.629Z,51.3
2018-06-20T04:27:52.700Z,51.3
2018-06-20T04:28:42.482Z,51.2
2018-06-20T04:29:32.536Z,51.3
2018-06-20T04:30:22.625Z,51.2
2018-06-20T04:31:12.710Z,51.2
2018-06-20T04:32:03.018Z,51.1
2018-06-20T04:32:53.074Z,51.1
2018-06-20T04:33:43.163Z,51.1
2018-06-20T04:34:33.504Z,51.1
2018-06-20T04:35:22.040Z,51.1
2018-06-20T04:36:13.074Z,51.1
2018-06-20T04:37:02.818Z,51.1
2018-06-20T04:37:53.430Z,51.1
2018-06-20T04:38:42.979Z,51
2018-06-20T04:39:33.586Z,51
2018-06-20T04:40:23.336Z,51
2018-06-20T04:41:13.687Z,51
2018-06-20T04:42:03.207Z,51
2018-06-20T04:42:53.559Z,51
2018-06-20T04:43:43.876Z,50.9
2018-06-20T04:44:33.543Z,50.9
2018-06-20T04:45:24.047Z,50.9
2018-06-20T04:46:13.817Z,50.9
2018-06-20T04:47:03.338Z,50.9
2018-06-20T04:47:53.970Z,50.9
2018-06-20T04:48:44.307Z,50.8
2018-06-20T04:49:33.790Z,50.9
2018-06-20T04:50:23.889Z,50.8
2018-06-20T04:51:14.232Z,50.8
2018-06-20T04:52:04.012Z,50.8
2018-06-20T04:52:53.491Z,50.8
2018-06-20T04:53:43.543Z,50.8
2018-06-20T04:54:34.748Z,50.8
2018-06-20T04:55:24.514Z,50.8
2018-06-20T04:56:14.601Z,50.8
2018-06-20T04:57:04.922Z,50.8
2018-06-20T04:57:54.450Z,50.8
2018-06-20T04:58:44.019Z,50.8
2018-06-20T04:59:35.123Z,50.8
2018-06-20T05:00:25.207Z,50.8
2018-06-20T05:01:15.254Z,50.7
2018-06-20T05:02:04.751Z,50.7
2018-06-20T05:02:54.805Z,50.7
2018-06-20T05:03:45.019Z,50.7
2018-06-20T05:04:35.276Z,50.6
2018-06-20T05:05:25.074Z,50.7
2018-06-20T05:06:14.821Z,50.6
2018-06-20T05:07:05.231Z,50.7
2018-06-20T05:07:55.484Z,50.6
2018-06-20T05:08:45.846Z,50.6
2018-06-20T05:09:35.330Z,50.6
2018-06-20T05:10:25.666Z,50.6
2018-06-20T05:11:16.006Z,50.6
2018-06-20T05:12:05.821Z,50.6
2018-06-20T05:12:55.595Z,50.6
2018-06-20T05:13:46.217Z,50.6
2018-06-20T05:14:35.746Z,50.6
2018-06-20T05:15:26.037Z,50.6
2018-06-20T05:16:16.099Z,50.5
2018-06-20T05:17:06.176Z,50.5
2018-06-20T05:17:56.241Z,50.6
2018-06-20T05:18:46.606Z,50.5
2018-06-20T05:19:36.630Z,50.5
2018-06-20T05:20:26.150Z,50.5
2018-06-20T05:21:16.775Z,50.5
2018-06-20T05:22:06.265Z,50.5
2018-06-20T05:22:56.353Z,50.4
2018-06-20T05:23:46.693Z,50.4
2018-06-20T05:24:36.813Z,50.4
2018-06-20T05:25:26.813Z,50.4
2018-06-20T05:26:17.200Z,50.4
2018-06-20T05:27:06.718Z,50.4
2018-06-20T05:27:56.822Z,50.4
2018-06-20T05:28:46.778Z,50.4
2018-06-20T05:29:37.135Z,50.4
2018-06-20T05:30:27.464Z,50.4
2018-06-20T05:31:17.020Z,50.4
2018-06-20T05:32:07.594Z,50.4
2018-06-20T05:32:58.377Z,50.4
2018-06-20T05:33:47.714Z,50.4
2018-06-20T05:34:37.785Z,50.3
2018-06-20T05:35:27.852Z,50.3
2018-06-20T05:36:17.916Z,50.3
2018-06-20T05:37:07.684Z,50.3
2018-06-20T05:37:57.744Z,50.3
2018-06-20T05:38:48.130Z,50.3
2018-06-20T05:39:37.930Z,50.2
2018-06-20T05:40:28.251Z,50.1
2018-06-20T05:41:18.032Z,50.1
2018-06-20T05:42:08.363Z,50
2018-06-20T05:42:58.443Z,50
2018-06-20T05:43:48.214Z,50.1
2018-06-20T05:44:38.566Z,50
2018-06-20T05:45:28.074Z,49.9
2018-06-20T05:46:17.845Z,50
2018-06-20T05:47:08.285Z,49.9
2018-06-20T05:47:57.981Z,49.9
2018-06-20T05:48:48.617Z,49.9
2018-06-20T05:49:38.098Z,49.9
2018-06-20T05:50:28.724Z,49.9
2018-06-20T05:51:19.108Z,49.9
2018-06-20T05:52:08.873Z,49.9
2018-06-20T05:52:58.896Z,49.9
2018-06-20T05:53:49.262Z,49.9
2018-06-20T05:54:39.325Z,49.9
2018-06-20T05:55:29.386Z,49.9
2018-06-20T05:56:19.170Z,49.9
2018-06-20T05:57:09.269Z,49.8
2018-06-20T05:57:59.585Z,49.8
2018-06-20T05:58:49.481Z,49.8
2018-06-20T05:59:39.133Z,49.8
2018-06-20T06:00:29.745Z,49.8
2018-06-20T06:01:19.557Z,49.8
2018-06-20T06:02:09.339Z,49.7
2018-06-20T06:02:59.969Z,49.8
2018-06-20T06:03:49.451Z,49.7
2018-06-20T06:04:40.091Z,49.7
2018-06-20T06:05:30.197Z,49.7
2018-06-20T06:06:19.950Z,49.7
2018-06-20T06:07:10.293Z,49.7
2018-06-20T06:07:59.778Z,49.6
2018-06-20T06:08:49.851Z,49.6
2018-06-20T06:09:39.654Z,49.6
2018-06-20T06:11:19.624Z,49.6
2018-06-20T06:12:09.910Z,49.6
2018-06-20T06:12:59.717Z,49.6
2018-06-20T06:13:50.001Z,49.6
2018-06-20T06:14:40.131Z,49.6
2018-06-20T06:15:29.308Z,49.6
2018-06-20T06:16:19.942Z,49.6
2018-06-20T06:17:10.700Z,49.6
2018-06-20T06:18:00.071Z,49.6
2018-06-20T06:18:50.432Z,49.6
2018-06-20T06:19:40.459Z,49.5
2018-06-20T06:20:30.508Z,49.5
2018-06-20T06:21:20.579Z,49.5
2018-06-20T06:22:10.358Z,49.5
2018-06-20T06:23:00.427Z,49.5
2018-06-20T06:23:50.249Z,49.5
2018-06-20T06:24:40.853Z,49.5
2018-06-20T06:25:30.970Z,49.5
2018-06-20T06:26:20.980Z,49.4
2018-06-20T06:27:10.468Z,49.4
2018-06-20T06:28:00.815Z,49.4
2018-06-20T06:28:50.890Z,49.4
2018-06-20T06:29:41.217Z,49.4
2018-06-20T06:30:30.908Z,49.4
2018-06-20T06:31:21.067Z,49.4
2018-06-20T06:32:11.131Z,49.4
2018-06-20T06:33:00.953Z,49.4
2018-06-20T06:33:51.260Z,49.4
2018-06-20T06:34:41.612Z,49.4
2018-06-20T06:35:31.397Z,49.4
2018-06-20T06:36:21.245Z,49.3
2018-06-20T06:37:11.504Z,49.3
2018-06-20T06:38:01.626Z,49.3
2018-06-20T06:38:51.660Z,49.3
2018-06-20T06:39:42.071Z,49.3
2018-06-20T06:40:31.788Z,49.3
2018-06-20T06:41:21.865Z,49.3
2018-06-20T06:42:11.958Z,49.3
2018-06-20T06:43:02.236Z,49.3
2018-06-20T06:43:51.781Z,49.3
2018-06-20T06:44:42.393Z,49.3
2018-06-20T06:45:32.413Z,49.3
2018-06-20T06:46:22.556Z,49.3
2018-06-20T06:47:12.294Z,49.3
2018-06-20T06:48:02.400Z,49.3
2018-06-20T06:48:52.719Z,49.2
2018-06-20T06:49:43.414Z,49.2
2018-06-20T06:50:32.237Z,49.2
2018-06-20T06:51:22.603Z,49.2
2018-06-20T06:52:12.959Z,49.2
2018-06-20T06:53:02.989Z,49.2
2018-06-20T06:53:53.076Z,49.1
2018-06-20T06:54:42.595Z,49.1
2018-06-20T06:55:33.190Z,49.1
2018-06-20T06:56:23.050Z,49.1
2018-06-20T06:57:13.331Z,49.1
2018-06-20T06:58:03.478Z,49.1
2018-06-20T06:58:53.475Z,49.1
2018-06-20T06:59:43.031Z,49.1
2018-06-20T07:00:33.604Z,49.1
2018-06-20T07:01:23.663Z,49.1
2018-06-20T07:02:13.727Z,49.1
2018-06-20T07:03:03.554Z,49.1
2018-06-20T07:03:53.902Z,49.1
2018-06-20T07:04:43.648Z,49.1
2018-06-20T07:05:33.769Z,49.1
2018-06-20T07:06:23.759Z,49
2018-06-20T07:07:14.114Z,49
2018-06-20T07:08:03.882Z,49
2018-06-20T07:08:53.394Z,49
2018-06-20T07:09:44.034Z,49
2018-06-20T07:10:34.169Z,49
2018-06-20T07:11:24.176Z,49
2018-06-20T07:12:14.250Z,48.9
2018-06-20T07:13:04.267Z,48.9
2018-06-20T07:13:54.074Z,48.9
2018-06-20T07:14:44.144Z,48.9
2018-06-20T07:15:35.641Z,48.9
2018-06-20T07:16:24.858Z,48.9
2018-06-20T07:17:14.337Z,48.9
2018-06-20T07:18:04.668Z,48.9
2018-06-20T07:18:54.999Z,48.9
2018-06-20T07:19:44.870Z,48.9
2018-06-20T07:20:34.683Z,48.9
2018-06-20T07:21:25.222Z,48.9
2018-06-20T07:22:15.286Z,48.9
2018-06-20T07:23:05.068Z,48.9
2018-06-20T07:23:55.146Z,48.9
2018-06-20T07:24:45.182Z,48.8
2018-06-20T07:25:35.608Z,48.9
2018-06-20T07:26:25.024Z,48.8
2018-06-20T07:27:15.417Z,48.8
2018-06-20T07:28:05.140Z,48.8
2018-06-20T07:28:55.548Z,48.8
2018-06-20T07:29:45.650Z,48.8
2018-06-20T07:30:35.353Z,48.8
2018-06-20T07:31:25.223Z,48.8
2018-06-20T07:32:15.765Z,48.8
2018-06-20T07:33:06.143Z,48.8
2018-06-20T07:33:55.926Z,48.8
2018-06-20T07:34:45.432Z,48.8
2018-06-20T07:35:37.556Z,48.8
2018-06-20T07:36:26.219Z,48.8
2018-06-20T07:37:15.667Z,48.7
2018-06-20T07:38:06.510Z,48.7
2018-06-20T07:38:56.586Z,48.7
2018-06-20T07:39:46.147Z,48.7
2018-06-20T07:40:36.166Z,48.7
2018-06-20T07:41:26.459Z,48.7
2018-06-20T07:42:16.816Z,48.7
2018-06-20T07:43:06.874Z,48.6
2018-06-20T07:43:56.720Z,48.6
2018-06-20T07:44:46.729Z,48.6
2018-06-20T07:45:36.779Z,48.6
2018-06-20T07:46:27.109Z,48.6
2018-06-20T07:47:17.198Z,48.6
2018-06-20T07:48:06.718Z,48.6
2018-06-20T07:48:57.047Z,48.6
2018-06-20T07:49:47.373Z,48.6
2018-06-20T07:50:37.061Z,48.6
2018-06-20T07:51:26.661Z,48.6
2018-06-20T07:52:16.835Z,48.6
2018-06-20T07:53:07.093Z,48.6
2018-06-20T07:53:57.756Z,48.6
2018-06-20T07:54:47.532Z,48.6
2018-06-20T07:55:37.864Z,48.5
2018-06-20T07:56:27.618Z,48.5
2018-06-20T07:57:17.420Z,48.5
2018-06-20T07:58:08.044Z,48.5
2018-06-20T07:58:57.251Z,48.5
2018-06-20T07:59:47.853Z,48.5
2018-06-20T08:00:38.251Z,48.4
2018-06-20T08:01:27.773Z,48.4
2018-06-20T08:02:18.367Z,48.4
2018-06-20T08:03:08.544Z,48.4
2018-06-20T08:03:58.465Z,48.3
2018-06-20T08:04:48.602Z,48.3
2018-06-20T08:05:38.604Z,48.2
2018-06-20T08:06:29.222Z,48.1
2018-06-20T08:07:18.189Z,48.1
2018-06-20T08:08:08.814Z,48.1
2018-06-20T08:08:58.575Z,48.1
2018-06-20T08:09:48.734Z,48
2018-06-20T08:10:38.443Z,48
2018-06-20T08:11:28.310Z,48.1
2018-06-20T08:12:18.893Z,48.1
2018-06-20T08:13:08.915Z,48.1
2018-06-20T08:13:59.002Z,48.1
2018-06-20T08:14:48.079Z,48.3
2018-06-20T08:15:39.111Z,48.3
2018-06-20T08:16:29.443Z,48.3
2018-06-20T08:17:19.301Z,48.4
2018-06-20T08:18:08.740Z,48.4
2018-06-20T08:18:59.360Z,48.5
2018-06-20T08:19:49.440Z,48.6
2018-06-20T08:20:39.256Z,48.6
2018-06-20T08:21:29.582Z,48.6
2018-06-20T08:22:19.931Z,48.7
2018-06-20T08:23:09.952Z,48.8
2018-06-20T08:24:00.049Z,48.8
2018-06-20T08:24:49.523Z,48.9
2018-06-20T08:25:40.395Z,48.9
2018-06-20T08:26:30.196Z,49
2018-06-20T08:27:19.986Z,49.1
2018-06-20T08:28:09.507Z,49.2
2018-06-20T08:29:00.422Z,49.3
2018-06-20T08:29:50.483Z,49.3
2018-06-20T08:30:39.961Z,49.4
2018-06-20T08:31:30.051Z,49.4
2018-06-20T08:32:20.733Z,49.6
2018-06-20T08:33:10.435Z,49.6
2018-06-20T08:34:00.852Z,49.7
2018-06-20T08:34:50.615Z,49.8
2018-06-20T08:35:40.922Z,49.9
2018-06-20T08:36:30.733Z,49.9
2018-06-20T08:37:20.487Z,50.1
2018-06-20T08:38:10.840Z,50.1
2018-06-20T08:39:01.173Z,50.2
2018-06-20T08:39:51.251Z,50.3
2018-06-20T08:40:41.053Z,50.3
2018-06-20T08:41:31.383Z,50.4
2018-06-20T08:42:21.831Z,50.5
2018-06-20T08:43:11.520Z,50.6
2018-06-20T08:44:01.018Z,50.6
2018-06-20T08:44:50.781Z,50.6
2018-06-20T08:45:41.678Z,50.8
2018-06-20T08:46:31.486Z,50.8
2018-06-20T08:47:21.828Z,50.9
2018-06-20T08:48:11.636Z,50.9
2018-06-20T08:49:01.688Z,51
2018-06-20T08:49:52.040Z,51.1
2018-06-20T08:50:42.074Z,51.1
2018-06-20T08:51:32.164Z,51.2
2018-06-20T08:52:22.233Z,51.3
2018-06-20T08:53:12.310Z,51.4
2018-06-20T08:54:02.058Z,51.4
2018-06-20T08:54:52.124Z,51.5
2018-06-20T08:55:42.488Z,51.6
2018-06-20T08:56:32.285Z,51.6
2018-06-20T08:57:22.638Z,51.8
2018-06-20T08:58:12.140Z,51.8
2018-06-20T08:59:02.165Z,51.9
2018-06-20T09:00:42.839Z,52
2018-06-20T09:01:32.966Z,52.1
2018-06-20T09:02:23.009Z,52.1
2018-06-20T09:03:12.763Z,52.3
2018-06-20T09:04:03.151Z,52.3
2018-06-20T09:05:42.965Z,52.4
2018-06-20T09:06:33.318Z,52.6
2018-06-20T09:07:23.100Z,52.6
2018-06-20T09:08:13.151Z,52.7
2018-06-20T09:09:03.277Z,52.8
2018-06-20T09:09:53.564Z,52.9
2018-06-20T09:10:43.335Z,52.9
2018-06-20T09:11:33.711Z,53
2018-06-20T09:12:23.192Z,53.1
2018-06-20T09:13:13.852Z,53.1
2018-06-20T09:14:03.625Z,53.3
2018-06-20T09:14:53.937Z,53.3
2018-06-20T09:15:43.748Z,53.4
2018-06-20T09:16:33.828Z,53.4
2018-06-20T09:17:23.901Z,53.5
2018-06-20T09:18:13.738Z,53.6
2018-06-20T09:19:04.046Z,53.6
2018-06-20T09:19:53.376Z,53.7
2018-06-20T09:20:44.414Z,53.8
2018-06-20T09:21:33.926Z,53.8
2018-06-20T09:22:23.730Z,53.9
2018-06-20T09:23:14.626Z,53.9
2018-06-20T09:24:03.913Z,54
2018-06-20T09:24:54.471Z,54.1
2018-06-20T09:25:44.505Z,54.1
2018-06-20T09:26:34.641Z,54.2
2018-06-20T09:27:24.171Z,54.3
2018-06-20T09:28:14.764Z,54.3
2018-06-20T09:29:04.808Z,54.3
2018-06-20T09:29:54.931Z,54.4
2018-06-20T09:30:44.912Z,54.5
2018-06-20T09:31:34.985Z,54.6
2018-06-20T09:32:24.832Z,54.6
2018-06-20T09:33:15.103Z,54.7
2018-06-20T09:34:04.893Z,54.8
2018-06-20T09:34:54.957Z,54.8
2018-06-20T09:35:45.324Z,54.8
2018-06-20T09:36:35.374Z,54.9
2018-06-20T09:37:25.735Z,55
2018-06-20T09:38:15.774Z,55.1
2018-06-20T09:39:05.560Z,55.1
2018-06-20T09:39:55.628Z,55.2
2018-06-20T09:40:45.444Z,55.3
2018-06-20T09:41:36.116Z,55.4
2018-06-20T09:42:26.139Z,55.4
2018-06-20T09:43:15.867Z,55.5
2018-06-20T09:44:06.233Z,55.6
2018-06-20T09:44:56.316Z,55.7
2018-06-20T09:45:45.806Z,55.8
2018-06-20T09:46:35.890Z,55.8
2018-06-20T09:47:26.286Z,55.9
2018-06-20T09:48:16.550Z,55.9
2018-06-20T09:49:06.630Z,56.1
2018-06-20T09:49:56.688Z,56.2
2018-06-20T09:50:46.479Z,56.3
2018-06-20T09:51:36.558Z,56.3
2018-06-20T09:52:26.871Z,56.4
2018-06-20T09:53:16.928Z,56.5
2018-06-20T09:54:06.711Z,56.6
2018-06-20T09:54:56.811Z,56.6
2018-06-20T09:55:47.145Z,56.7
2018-06-20T09:56:37.036Z,56.8
2018-06-20T09:57:27.024Z,56.8
2018-06-20T09:58:16.818Z,56.8
2018-06-20T09:59:06.955Z,56.9
2018-06-20T09:59:57.509Z,56.9
2018-06-20T10:00:47.295Z,56.9
2018-06-20T10:01:38.366Z,56.9
2018-06-20T10:02:27.704Z,57
2018-06-20T10:03:17.492Z,57.1
2018-06-20T10:04:07.260Z,57.1
2018-06-20T10:04:57.585Z,57.1
2018-06-20T10:05:47.947Z,57.2
2018-06-20T10:06:37.443Z,57.2
2018-06-20T10:07:27.793Z,57.2
2018-06-20T10:08:17.923Z,57.3
2018-06-20T10:09:08.205Z,57.3
2018-06-20T10:09:57.973Z,57.4
2018-06-20T10:10:47.225Z,57.4
2018-06-20T10:11:38.165Z,57.4
2018-06-20T10:12:28.149Z,57.4
2018-06-20T10:13:18.561Z,57.5
2018-06-20T10:14:08.305Z,57.6
2018-06-20T10:14:58.080Z,57.6
2018-06-20T10:15:48.177Z,57.6
2018-06-20T10:16:38.860Z,57.7
2018-06-20T10:18:18.325Z,57.8
2018-06-20T10:19:08.972Z,57.8
2018-06-20T10:19:58.487Z,57.9
2018-06-20T10:20:48.837Z,57.9
2018-06-20T10:21:38.895Z,58
2018-06-20T10:22:28.648Z,58.1
2018-06-20T10:23:18.742Z,58.1
2018-06-20T10:24:09.071Z,58.1
2018-06-20T10:24:59.117Z,58.2
2018-06-20T10:25:48.928Z,58.3
2018-06-20T10:26:38.704Z,58.3
2018-06-20T10:27:29.072Z,58.4
2018-06-20T10:28:19.396Z,58.4
2018-06-20T10:29:09.826Z,58.5
2018-06-20T10:30:49.341Z,58.6
2018-06-20T10:31:39.952Z,58.7
2018-06-20T10:32:30.014Z,58.7
2018-06-20T10:33:19.851Z,58.8
2018-06-20T10:34:10.469Z,58.9
2018-06-20T10:34:59.940Z,58.9
2018-06-20T10:35:49.976Z,59
2018-06-20T10:36:40.043Z,59.1
2018-06-20T10:37:30.123Z,59.1
2018-06-20T10:38:20.468Z,59.2
2018-06-20T10:39:10.227Z,59.2
2018-06-20T10:40:00.710Z,59.3
2018-06-20T10:40:50.079Z,59.3
2018-06-20T10:41:40.740Z,59.4
2018-06-20T10:42:30.508Z,59.4
2018-06-20T10:43:20.862Z,59.5
2018-06-20T10:44:10.347Z,59.6
2018-06-20T10:45:01.008Z,59.6
2018-06-20T10:45:50.487Z,59.7
2018-06-20T10:46:40.828Z,59.8
2018-06-20T10:47:31.190Z,59.8
2018-06-20T10:48:20.680Z,59.9
2018-06-20T10:49:10.775Z,59.9
2018-06-20T10:50:01.111Z,60
2018-06-20T10:50:50.867Z,60.1
2018-06-20T10:51:41.560Z,60.1
2018-06-20T10:52:30.970Z,60.2
2018-06-20T10:53:21.065Z,60.3
2018-06-20T10:54:11.388Z,60.3
2018-06-20T10:55:01.447Z,60.4
2018-06-20T10:55:51.838Z,60.4
2018-06-20T10:56:41.873Z,60.4
2018-06-20T10:57:31.968Z,60.5
2018-06-20T10:58:21.817Z,60.6
2018-06-20T10:59:11.547Z,60.6
2018-06-20T11:00:01.553Z,60.6
2018-06-20T11:00:52.192Z,60.7
2018-06-20T11:01:41.717Z,60.7
2018-06-20T11:02:32.064Z,60.8
2018-06-20T11:03:22.176Z,60.8
2018-06-20T11:04:12.454Z,60.8
2018-06-20T11:05:02.241Z,60.9
2018-06-20T11:05:52.311Z,60.9
2018-06-20T11:06:42.701Z,60.9
2018-06-20T11:07:32.123Z,60.9
2018-06-20T11:08:22.828Z,61
2018-06-20T11:09:12.866Z,61
2018-06-20T11:10:02.586Z,61.1
2018-06-20T11:10:52.375Z,61.1
2018-06-20T11:11:43.060Z,61.1
2018-06-20T11:12:33.065Z,61.2
2018-06-20T11:13:22.316Z,61.3
2018-06-20T11:14:13.255Z,61.3
2018-06-20T11:15:02.765Z,61.3
2018-06-20T11:15:53.089Z,61.4
2018-06-20T11:16:43.434Z,61.4
2018-06-20T11:17:32.948Z,61.5
2018-06-20T11:18:23.592Z,61.5
2018-06-20T11:19:13.587Z,61.6
2018-06-20T11:20:03.664Z,61.6
2018-06-20T11:20:53.801Z,61.6
2018-06-20T11:21:43.513Z,61.7
2018-06-20T11:22:33.595Z,61.8
2018-06-20T11:23:24.573Z,61.8
2018-06-20T11:24:13.722Z,61.8
2018-06-20T11:25:03.809Z,61.9
2018-06-20T11:25:53.596Z,61.9
2018-06-20T11:26:44.221Z,61.9
2018-06-20T11:27:33.982Z,62